sensor_id;sensor_type;location;lat;lon;timestamp;P1;durP1;ratioP1;P2;durP2;ratioP2
42036;SDS011;30340;52.004;5.908;2023-04-03T00:01:31;3.47;;;1.95;;
42036;SDS011;30340;52.004;5.908;2023-04-03T00:03:57;3.92;;;2.08;;
42036;SDS011;30340;52.004;5.908;2023-04-03T00:06:23;3.78;;;1.90;;
42036;SDS011;30340;52.004;5.908;2023-04-03T00:08:49;3.45;;;1.90;;
42036;SDS011;30340;52.004;5.908;2023-04-03T00:11:15;3.45;;;1.67;;
42036;SDS011;30340;52.004;5.908;2023-04-03T00:13:41;3.90;;;1.83;;
42036;SDS011;30340;52.004;5.908;2023-04-03T00:16:07;3.45;;;1.85;;
42036;SDS011;30340;52.004;5.908;2023-04-03T00:18:34;2.75;;;1.80;;
42036;SDS011;30340;52.004;5.908;2023-04-03T00:21:01;2.17;;;1.73;;
42036;SDS011;30340;52.004;5.908;2023-04-03T00:23:26;3.97;;;1.90;;
42036;SDS011;30340;52.004;5.908;2023-04-03T00:25:52;2.90;;;1.95;;
42036;SDS011;30340;52.004;5.908;2023-04-03T00:28:18;2.40;;;1.67;;
42036;SDS011;30340;52.004;5.908;2023-04-03T00:30:44;3.03;;;1.60;;
42036;SDS011;30340;52.004;5.908;2023-04-03T00:33:13;2.83;;;1.90;;
42036;SDS011;30340;52.004;5.908;2023-04-03T00:35:39;2.38;;;1.90;;
42036;SDS011;30340;52.004;5.908;2023-04-03T00:38:05;2.90;;;1.70;;
42036;SDS011;30340;52.004;5.908;2023-04-03T00:40:35;3.08;;;2.10;;
42036;SDS011;30340;52.004;5.908;2023-04-03T00:43:05;4.90;;;2.10;;
42036;SDS011;30340;52.004;5.908;2023-04-03T00:45:40;3.17;;;2.05;;
42036;SDS011;30340;52.004;5.908;2023-04-03T00:48:08;2.00;;;1.60;;
42036;SDS011;30340;52.004;5.908;2023-04-03T00:50:38;2.83;;;1.98;;
42036;SDS011;30340;52.004;5.908;2023-04-03T00:53:06;3.78;;;1.70;;
42036;SDS011;30340;52.004;5.908;2023-04-03T00:55:35;3.30;;;1.70;;
42036;SDS011;30340;52.004;5.908;2023-04-03T00:58:02;3.38;;;1.75;;
42036;SDS011;30340;52.004;5.908;2023-04-03T01:00:29;2.90;;;1.77;;
42036;SDS011;30340;52.004;5.908;2023-04-03T01:02:55;4.28;;;1.58;;
42036;SDS011;30340;52.004;5.908;2023-04-03T01:05:21;2.83;;;1.70;;
42036;SDS011;30340;52.004;5.908;2023-04-03T01:07:47;2.17;;;1.60;;
42036;SDS011;30340;52.004;5.908;2023-04-03T01:10:15;2.63;;;1.50;;
42036;SDS011;30340;52.004;5.908;2023-04-03T01:12:44;4.45;;;1.83;;
42036;SDS011;30340;52.004;5.908;2023-04-03T01:17:48;2.83;;;1.58;;
42036;SDS011;30340;52.004;5.908;2023-04-03T01:25:51;2.65;;;1.58;;
42036;SDS011;30340;52.004;5.908;2023-04-03T01:28:39;2.78;;;1.33;;
42036;SDS011;30340;52.004;5.908;2023-04-03T01:31:12;3.22;;;1.63;;
42036;SDS011;30340;52.004;5.908;2023-04-03T01:33:45;2.42;;;1.60;;
42036;SDS011;30340;52.004;5.908;2023-04-03T01:36:13;3.38;;;1.75;;
42036;SDS011;30340;52.004;5.908;2023-04-03T01:38:42;3.72;;;1.58;;
42036;SDS011;30340;52.004;5.908;2023-04-03T01:41:07;2.42;;;1.55;;
42036;SDS011;30340;52.004;5.908;2023-04-03T01:43:33;2.72;;;1.73;;
42036;SDS011;30340;52.004;5.908;2023-04-03T01:45:58;5.40;;;2.83;;
42036;SDS011;30340;52.004;5.908;2023-04-03T01:48:24;5.47;;;2.97;;
42036;SDS011;30340;52.004;5.908;2023-04-03T01:50:49;5.55;;;2.35;;
42036;SDS011;30340;52.004;5.908;2023-04-03T01:53:15;3.28;;;2.00;;
42036;SDS011;30340;52.004;5.908;2023-04-03T01:55:41;2.45;;;1.70;;
42036;SDS011;30340;52.004;5.908;2023-04-03T01:58:06;2.80;;;1.80;;
42036;SDS011;30340;52.004;5.908;2023-04-03T02:00:32;6.10;;;2.20;;
42036;SDS011;30340;52.004;5.908;2023-04-03T02:02:57;2.90;;;1.63;;
42036;SDS011;30340;52.004;5.908;2023-04-03T02:05:23;3.85;;;1.50;;
42036;SDS011;30340;52.004;5.908;2023-04-03T02:07:48;4.03;;;1.98;;
42036;SDS011;30340;52.004;5.908;2023-04-03T02:10:14;3.30;;;1.70;;
42036;SDS011;30340;52.004;5.908;2023-04-03T02:12:40;2.88;;;1.50;;
42036;SDS011;30340;52.004;5.908;2023-04-03T02:15:05;2.78;;;1.63;;
42036;SDS011;30340;52.004;5.908;2023-04-03T02:17:31;2.65;;;1.50;;
42036;SDS011;30340;52.004;5.908;2023-04-03T02:19:57;4.32;;;1.73;;
42036;SDS011;30340;52.004;5.908;2023-04-03T02:22:23;4.25;;;1.70;;
42036;SDS011;30340;52.004;5.908;2023-04-03T02:24:48;4.20;;;1.90;;
42036;SDS011;30340;52.004;5.908;2023-04-03T02:27:14;3.42;;;1.60;;
42036;SDS011;30340;52.004;5.908;2023-04-03T02:29:40;4.15;;;1.83;;
42036;SDS011;30340;52.004;5.908;2023-04-03T02:32:06;2.35;;;1.58;;
42036;SDS011;30340;52.004;5.908;2023-04-03T02:34:31;2.80;;;1.48;;
42036;SDS011;30340;52.004;5.908;2023-04-03T02:36:57;2.50;;;1.80;;
42036;SDS011;30340;52.004;5.908;2023-04-03T02:39:22;4.22;;;1.90;;
42036;SDS011;30340;52.004;5.908;2023-04-03T02:41:48;2.88;;;1.63;;
42036;SDS011;30340;52.004;5.908;2023-04-03T02:44:13;1.95;;;1.40;;
42036;SDS011;30340;52.004;5.908;2023-04-03T02:46:39;2.40;;;1.25;;
42036;SDS011;30340;52.004;5.908;2023-04-03T02:49:05;2.95;;;1.52;;
42036;SDS011;30340;52.004;5.908;2023-04-03T02:51:31;2.67;;;1.70;;
42036;SDS011;30340;52.004;5.908;2023-04-03T02:53:57;4.20;;;1.83;;
42036;SDS011;30340;52.004;5.908;2023-04-03T02:56:22;3.97;;;1.60;;
42036;SDS011;30340;52.004;5.908;2023-04-03T02:58:48;3.88;;;1.63;;
42036;SDS011;30340;52.004;5.908;2023-04-03T03:01:14;2.78;;;1.60;;
42036;SDS011;30340;52.004;5.908;2023-04-03T03:03:39;4.00;;;1.77;;
42036;SDS011;30340;52.004;5.908;2023-04-03T03:06:06;4.00;;;1.67;;
42036;SDS011;30340;52.004;5.908;2023-04-03T03:08:36;2.47;;;1.38;;
42036;SDS011;30340;52.004;5.908;2023-04-03T03:11:02;3.85;;;1.90;;
42036;SDS011;30340;52.004;5.908;2023-04-03T03:13:29;2.95;;;1.60;;
42036;SDS011;30340;52.004;5.908;2023-04-03T03:15:57;4.03;;;1.88;;
42036;SDS011;30340;52.004;5.908;2023-04-03T03:18:23;3.60;;;1.70;;
42036;SDS011;30340;52.004;5.908;2023-04-03T03:20:53;5.28;;;1.77;;
42036;SDS011;30340;52.004;5.908;2023-04-03T03:23:20;4.68;;;1.95;;
42036;SDS011;30340;52.004;5.908;2023-04-03T03:25:47;5.38;;;2.03;;
42036;SDS011;30340;52.004;5.908;2023-04-03T03:28:12;3.53;;;1.80;;
42036;SDS011;30340;52.004;5.908;2023-04-03T03:30:38;2.55;;;1.80;;
42036;SDS011;30340;52.004;5.908;2023-04-03T03:33:04;4.40;;;2.10;;
42036;SDS011;30340;52.004;5.908;2023-04-03T03:35:30;3.22;;;1.80;;
42036;SDS011;30340;52.004;5.908;2023-04-03T03:37:55;2.65;;;1.73;;
42036;SDS011;30340;52.004;5.908;2023-04-03T03:40:21;4.95;;;1.83;;
42036;SDS011;30340;52.004;5.908;2023-04-03T03:42:46;3.38;;;1.95;;
42036;SDS011;30340;52.004;5.908;2023-04-03T03:45:12;4.07;;;1.88;;
42036;SDS011;30340;52.004;5.908;2023-04-03T03:47:37;2.20;;;1.70;;
42036;SDS011;30340;52.004;5.908;2023-04-03T03:50:03;3.45;;;1.80;;
42036;SDS011;30340;52.004;5.908;2023-04-03T03:52:29;2.30;;;1.40;;
42036;SDS011;30340;52.004;5.908;2023-04-03T03:54:55;2.75;;;1.70;;
42036;SDS011;30340;52.004;5.908;2023-04-03T03:57:21;2.85;;;1.58;;
42036;SDS011;30340;52.004;5.908;2023-04-03T03:59:46;4.55;;;2.28;;
42036;SDS011;30340;52.004;5.908;2023-04-03T04:02:13;5.00;;;1.67;;
42036;SDS011;30340;52.004;5.908;2023-04-03T04:04:39;2.97;;;1.90;;
42036;SDS011;30340;52.004;5.908;2023-04-03T04:07:05;3.42;;;1.85;;
42036;SDS011;30340;52.004;5.908;2023-04-03T04:09:30;4.63;;;1.90;;
42036;SDS011;30340;52.004;5.908;2023-04-03T04:11:56;3.95;;;1.90;;
42036;SDS011;30340;52.004;5.908;2023-04-03T04:14:21;5.55;;;2.08;;
42036;SDS011;30340;52.004;5.908;2023-04-03T04:16:47;2.53;;;1.77;;
42036;SDS011;30340;52.004;5.908;2023-04-03T04:19:13;3.72;;;2.05;;
42036;SDS011;30340;52.004;5.908;2023-04-03T04:21:39;7.03;;;2.13;;
42036;SDS011;30340;52.004;5.908;2023-04-03T04:24:05;2.50;;;1.65;;
42036;SDS011;30340;52.004;5.908;2023-04-03T04:26:30;5.45;;;2.30;;
42036;SDS011;30340;52.004;5.908;2023-04-03T04:28:56;3.72;;;1.90;;
42036;SDS011;30340;52.004;5.908;2023-04-03T04:31:22;4.38;;;1.90;;
42036;SDS011;30340;52.004;5.908;2023-04-03T04:33:48;4.25;;;1.80;;
42036;SDS011;30340;52.004;5.908;2023-04-03T04:36:13;4.57;;;2.00;;
42036;SDS011;30340;52.004;5.908;2023-04-03T04:38:39;3.10;;;1.80;;
42036;SDS011;30340;52.004;5.908;2023-04-03T04:41:05;5.65;;;1.98;;
42036;SDS011;30340;52.004;5.908;2023-04-03T04:43:31;3.25;;;1.73;;
42036;SDS011;30340;52.004;5.908;2023-04-03T04:46:04;3.50;;;2.10;;
42036;SDS011;30340;52.004;5.908;2023-04-03T04:48:31;4.38;;;2.00;;
42036;SDS011;30340;52.004;5.908;2023-04-03T04:50:57;4.68;;;1.98;;
42036;SDS011;30340;52.004;5.908;2023-04-03T04:53:22;3.92;;;1.77;;
42036;SDS011;30340;52.004;5.908;2023-04-03T04:55:48;3.13;;;1.90;;
42036;SDS011;30340;52.004;5.908;2023-04-03T04:58:14;5.47;;;2.03;;
42036;SDS011;30340;52.004;5.908;2023-04-03T05:00:40;3.92;;;2.17;;
42036;SDS011;30340;52.004;5.908;2023-04-03T05:03:06;3.95;;;1.95;;
42036;SDS011;30340;52.004;5.908;2023-04-03T05:05:32;4.10;;;1.92;;
42036;SDS011;30340;52.004;5.908;2023-04-03T05:07:57;2.60;;;1.90;;
42036;SDS011;30340;52.004;5.908;2023-04-03T05:10:23;4.50;;;2.00;;
42036;SDS011;30340;52.004;5.908;2023-04-03T05:12:48;5.05;;;2.20;;
42036;SDS011;30340;52.004;5.908;2023-04-03T05:15:14;4.20;;;1.83;;
42036;SDS011;30340;52.004;5.908;2023-04-03T05:17:39;4.60;;;1.90;;
42036;SDS011;30340;52.004;5.908;2023-04-03T05:20:05;4.95;;;2.03;;
42036;SDS011;30340;52.004;5.908;2023-04-03T05:22:31;5.13;;;2.20;;
42036;SDS011;30340;52.004;5.908;2023-04-03T05:24:57;5.25;;;2.33;;
42036;SDS011;30340;52.004;5.908;2023-04-03T05:27:23;4.22;;;2.30;;
42036;SDS011;30340;52.004;5.908;2023-04-03T05:29:49;6.55;;;2.42;;
42036;SDS011;30340;52.004;5.908;2023-04-03T05:32:15;4.07;;;2.20;;
42036;SDS011;30340;52.004;5.908;2023-04-03T05:34:41;6.35;;;2.47;;
42036;SDS011;30340;52.004;5.908;2023-04-03T05:37:07;5.05;;;2.10;;
42036;SDS011;30340;52.004;5.908;2023-04-03T05:39:32;3.60;;;1.77;;
42036;SDS011;30340;52.004;5.908;2023-04-03T05:41:58;5.85;;;2.20;;
42036;SDS011;30340;52.004;5.908;2023-04-03T05:44:24;6.93;;;2.60;;
42036;SDS011;30340;52.004;5.908;2023-04-03T05:46:49;3.00;;;1.98;;
42036;SDS011;30340;52.004;5.908;2023-04-03T05:49:15;4.30;;;2.30;;
42036;SDS011;30340;52.004;5.908;2023-04-03T05:51:41;4.38;;;2.08;;
42036;SDS011;30340;52.004;5.908;2023-04-03T05:54:09;4.03;;;2.17;;
42036;SDS011;30340;52.004;5.908;2023-04-03T05:56:36;5.57;;;2.13;;
42036;SDS011;30340;52.004;5.908;2023-04-03T05:59:02;5.57;;;2.40;;
42036;SDS011;30340;52.004;5.908;2023-04-03T06:01:27;5.95;;;2.25;;
42036;SDS011;30340;52.004;5.908;2023-04-03T06:03:53;4.32;;;2.35;;
42036;SDS011;30340;52.004;5.908;2023-04-03T06:06:19;3.30;;;2.05;;
42036;SDS011;30340;52.004;5.908;2023-04-03T06:08:44;4.95;;;2.22;;
42036;SDS011;30340;52.004;5.908;2023-04-03T06:11:11;4.47;;;2.08;;
42036;SDS011;30340;52.004;5.908;2023-04-03T06:13:36;5.60;;;2.00;;
42036;SDS011;30340;52.004;5.908;2023-04-03T06:16:02;5.03;;;2.03;;
42036;SDS011;30340;52.004;5.908;2023-04-03T06:18:28;4.43;;;1.80;;
42036;SDS011;30340;52.004;5.908;2023-04-03T06:20:55;4.53;;;1.70;;
42036;SDS011;30340;52.004;5.908;2023-04-03T06:23:20;3.53;;;1.95;;
42036;SDS011;30340;52.004;5.908;2023-04-03T06:25:46;3.72;;;1.75;;
42036;SDS011;30340;52.004;5.908;2023-04-03T06:28:12;4.05;;;1.60;;
42036;SDS011;30340;52.004;5.908;2023-04-03T06:30:37;5.18;;;1.90;;
42036;SDS011;30340;52.004;5.908;2023-04-03T06:33:03;5.95;;;1.92;;
42036;SDS011;30340;52.004;5.908;2023-04-03T06:35:28;3.17;;;1.65;;
42036;SDS011;30340;52.004;5.908;2023-04-03T06:37:55;4.22;;;1.95;;
42036;SDS011;30340;52.004;5.908;2023-04-03T06:40:22;3.42;;;1.80;;
42036;SDS011;30340;52.004;5.908;2023-04-03T06:42:50;5.40;;;2.20;;
42036;SDS011;30340;52.004;5.908;2023-04-03T06:45:15;3.55;;;1.85;;
42036;SDS011;30340;52.004;5.908;2023-04-03T06:47:41;4.30;;;1.95;;
42036;SDS011;30340;52.004;5.908;2023-04-03T06:50:07;5.85;;;2.08;;
42036;SDS011;30340;52.004;5.908;2023-04-03T06:52:36;4.78;;;2.10;;
42036;SDS011;30340;52.004;5.908;2023-04-03T06:55:01;5.38;;;1.80;;
42036;SDS011;30340;52.004;5.908;2023-04-03T06:57:27;5.60;;;2.05;;
42036;SDS011;30340;52.004;5.908;2023-04-03T06:59:53;3.17;;;1.45;;
42036;SDS011;30340;52.004;5.908;2023-04-03T07:02:18;3.40;;;1.92;;
42036;SDS011;30340;52.004;5.908;2023-04-03T07:04:45;2.33;;;1.40;;
42036;SDS011;30340;52.004;5.908;2023-04-03T07:07:11;2.97;;;1.70;;
42036;SDS011;30340;52.004;5.908;2023-04-03T07:09:36;4.45;;;1.85;;
42036;SDS011;30340;52.004;5.908;2023-04-03T07:12:02;5.20;;;2.00;;
42036;SDS011;30340;52.004;5.908;2023-04-03T07:14:28;3.80;;;1.70;;
42036;SDS011;30340;52.004;5.908;2023-04-03T07:16:53;4.25;;;1.90;;
42036;SDS011;30340;52.004;5.908;2023-04-03T07:19:19;5.05;;;1.98;;
42036;SDS011;30340;52.004;5.908;2023-04-03T07:21:45;5.82;;;2.33;;
42036;SDS011;30340;52.004;5.908;2023-04-03T07:24:11;3.75;;;1.70;;
42036;SDS011;30340;52.004;5.908;2023-04-03T07:26:36;3.38;;;1.75;;
42036;SDS011;30340;52.004;5.908;2023-04-03T07:29:02;3.90;;;1.80;;
42036;SDS011;30340;52.004;5.908;2023-04-03T07:31:27;4.45;;;2.20;;
42036;SDS011;30340;52.004;5.908;2023-04-03T07:33:53;5.10;;;2.00;;
42036;SDS011;30340;52.004;5.908;2023-04-03T07:36:20;4.40;;;1.60;;
42036;SDS011;30340;52.004;5.908;2023-04-03T07:38:47;2.58;;;1.60;;
42036;SDS011;30340;52.004;5.908;2023-04-03T07:41:15;3.03;;;1.60;;
42036;SDS011;30340;52.004;5.908;2023-04-03T07:43:43;4.95;;;1.70;;
42036;SDS011;30340;52.004;5.908;2023-04-03T07:46:10;2.97;;;1.50;;
42036;SDS011;30340;52.004;5.908;2023-04-03T07:48:38;4.03;;;1.90;;
42036;SDS011;30340;52.004;5.908;2023-04-03T07:51:04;4.65;;;1.90;;
42036;SDS011;30340;52.004;5.908;2023-04-03T07:53:30;3.55;;;1.80;;
42036;SDS011;30340;52.004;5.908;2023-04-03T07:55:57;4.20;;;1.80;;
42036;SDS011;30340;52.004;5.908;2023-04-03T07:58:24;5.43;;;1.70;;
42036;SDS011;30340;52.004;5.908;2023-04-03T08:00:50;3.50;;;1.73;;
42036;SDS011;30340;52.004;5.908;2023-04-03T08:03:16;5.18;;;2.03;;
42036;SDS011;30340;52.004;5.908;2023-04-03T08:05:43;3.22;;;1.60;;
42036;SDS011;30340;52.004;5.908;2023-04-03T08:08:11;4.28;;;1.60;;
42036;SDS011;30340;52.004;5.908;2023-04-03T08:10:38;3.95;;;1.65;;
42036;SDS011;30340;52.004;5.908;2023-04-03T08:13:04;3.78;;;1.60;;
42036;SDS011;30340;52.004;5.908;2023-04-03T08:15:30;4.68;;;1.52;;
42036;SDS011;30340;52.004;5.908;2023-04-03T08:17:56;3.17;;;1.50;;
42036;SDS011;30340;52.004;5.908;2023-04-03T08:20:23;4.75;;;2.17;;
42036;SDS011;30340;52.004;5.908;2023-04-03T08:22:48;3.13;;;1.42;;
42036;SDS011;30340;52.004;5.908;2023-04-03T08:25:14;3.70;;;1.60;;
42036;SDS011;30340;52.004;5.908;2023-04-03T08:27:40;3.25;;;1.48;;
42036;SDS011;30340;52.004;5.908;2023-04-03T08:30:06;2.45;;;1.50;;
42036;SDS011;30340;52.004;5.908;2023-04-03T08:32:35;2.78;;;1.13;;
42036;SDS011;30340;52.004;5.908;2023-04-03T08:35:01;3.30;;;1.30;;
42036;SDS011;30340;52.004;5.908;2023-04-03T08:37:28;1.73;;;1.30;;
42036;SDS011;30340;52.004;5.908;2023-04-03T08:39:53;3.05;;;1.40;;
42036;SDS011;30340;52.004;5.908;2023-04-03T08:47:46;2.70;;;1.30;;
42036;SDS011;30340;52.004;5.908;2023-04-03T08:50:17;1.95;;;1.10;;
42036;SDS011;30340;52.004;5.908;2023-04-03T08:52:50;2.60;;;1.17;;
42036;SDS011;30340;52.004;5.908;2023-04-03T08:57:43;2.08;;;1.10;;
42036;SDS011;30340;52.004;5.908;2023-04-03T09:02:43;2.90;;;1.25;;
42036;SDS011;30340;52.004;5.908;2023-04-03T09:07:49;2.55;;;1.10;;
42036;SDS011;30340;52.004;5.908;2023-04-03T09:10:40;1.73;;;1.08;;
42036;SDS011;30340;52.004;5.908;2023-04-03T09:13:18;1.20;;;1.02;;
42036;SDS011;30340;52.004;5.908;2023-04-03T09:15:55;1.60;;;0.90;;
42036;SDS011;30340;52.004;5.908;2023-04-03T09:18:40;1.40;;;0.90;;
42036;SDS011;30340;52.004;5.908;2023-04-03T09:21:17;2.30;;;1.25;;
42036;SDS011;30340;52.004;5.908;2023-04-03T09:23:50;0.70;;;0.70;;
42036;SDS011;30340;52.004;5.908;2023-04-03T09:27:03;1.35;;;1.00;;
42036;SDS011;30340;52.004;5.908;2023-04-03T09:29:14;1.10;;;0.80;;
42036;SDS011;30340;52.004;5.908;2023-04-03T09:31:50;2.30;;;0.88;;
42036;SDS011;30340;52.004;5.908;2023-04-03T09:34:31;1.10;;;0.80;;
42036;SDS011;30340;52.004;5.908;2023-04-03T09:37:02;1.63;;;0.90;;
42036;SDS011;30340;52.004;5.908;2023-04-03T09:39:31;1.02;;;0.90;;
42036;SDS011;30340;52.004;5.908;2023-04-03T09:42:16;1.75;;;0.98;;
42036;SDS011;30340;52.004;5.908;2023-04-03T09:44:55;1.05;;;0.80;;
42036;SDS011;30340;52.004;5.908;2023-04-03T09:47:30;2.00;;;1.00;;
42036;SDS011;30340;52.004;5.908;2023-04-03T09:52:42;1.02;;;0.73;;
42036;SDS011;30340;52.004;5.908;2023-04-03T09:55:16;1.30;;;0.90;;
42036;SDS011;30340;52.004;5.908;2023-04-03T09:57:43;1.75;;;0.85;;
42036;SDS011;30340;52.004;5.908;2023-04-03T10:00:21;2.45;;;1.10;;
42036;SDS011;30340;52.004;5.908;2023-04-03T10:02:51;1.42;;;0.90;;
42036;SDS011;30340;52.004;5.908;2023-04-03T10:08:08;1.52;;;1.00;;
42036;SDS011;30340;52.004;5.908;2023-04-03T10:10:35;1.38;;;1.00;;
42036;SDS011;30340;52.004;5.908;2023-04-03T10:13:05;2.70;;;1.25;;
42036;SDS011;30340;52.004;5.908;2023-04-03T10:15:55;1.48;;;1.10;;
42036;SDS011;30340;52.004;5.908;2023-04-03T10:18:29;2.55;;;1.05;;
42036;SDS011;30340;52.004;5.908;2023-04-03T10:21:32;2.35;;;1.20;;
42036;SDS011;30340;52.004;5.908;2023-04-03T10:24:08;2.17;;;1.20;;
42036;SDS011;30340;52.004;5.908;2023-04-03T10:29:42;1.35;;;0.90;;
42036;SDS011;30340;52.004;5.908;2023-04-03T10:35:44;1.98;;;1.00;;
42036;SDS011;30340;52.004;5.908;2023-04-03T10:38:37;2.80;;;1.30;;
42036;SDS011;30340;52.004;5.908;2023-04-03T10:41:17;3.38;;;1.10;;
42036;SDS011;30340;52.004;5.908;2023-04-03T10:44:17;1.85;;;1.20;;
42036;SDS011;30340;52.004;5.908;2023-04-03T10:47:08;1.85;;;1.15;;
42036;SDS011;30340;52.004;5.908;2023-04-03T10:52:20;2.17;;;1.10;;
42036;SDS011;30340;52.004;5.908;2023-04-03T10:57:22;1.17;;;1.02;;
42036;SDS011;30340;52.004;5.908;2023-04-03T10:59:50;2.70;;;1.20;;
42036;SDS011;30340;52.004;5.908;2023-04-03T11:02:23;3.53;;;1.27;;
42036;SDS011;30340;52.004;5.908;2023-04-03T11:04:52;1.42;;;1.05;;
42036;SDS011;30340;52.004;5.908;2023-04-03T11:07:29;2.15;;;1.33;;
42036;SDS011;30340;52.004;5.908;2023-04-03T11:10:10;2.25;;;1.23;;
42036;SDS011;30340;52.004;5.908;2023-04-03T11:15:11;2.67;;;1.40;;
42036;SDS011;30340;52.004;5.908;2023-04-03T11:20:21;1.85;;;1.02;;
42036;SDS011;30340;52.004;5.908;2023-04-03T11:22:57;2.47;;;1.20;;
42036;SDS011;30340;52.004;5.908;2023-04-03T11:25:28;2.42;;;1.15;;
42036;SDS011;30340;52.004;5.908;2023-04-03T11:28:00;2.13;;;1.05;;
42036;SDS011;30340;52.004;5.908;2023-04-03T11:30:51;2.92;;;1.40;;
42036;SDS011;30340;52.004;5.908;2023-04-03T11:36:24;2.08;;;1.20;;
42036;SDS011;30340;52.004;5.908;2023-04-03T11:38:57;2.55;;;1.30;;
42036;SDS011;30340;52.004;5.908;2023-04-03T11:41:30;2.33;;;1.30;;
42036;SDS011;30340;52.004;5.908;2023-04-03T11:43:58;1.83;;;1.10;;
42036;SDS011;30340;52.004;5.908;2023-04-03T12:13:33;2.20;;;1.10;;
42036;SDS011;30340;52.004;5.908;2023-04-03T12:16:00;2.65;;;1.10;;
42036;SDS011;30340;52.004;5.908;2023-04-03T12:24:31;2.13;;;1.30;;
42036;SDS011;30340;52.004;5.908;2023-04-03T12:32:42;2.42;;;1.10;;
42036;SDS011;30340;52.004;5.908;2023-04-03T12:43:18;2.08;;;1.35;;
42036;SDS011;30340;52.004;5.908;2023-04-03T12:51:42;3.47;;;1.50;;
42036;SDS011;30340;52.004;5.908;2023-04-03T12:54:18;3.47;;;1.48;;
42036;SDS011;30340;52.004;5.908;2023-04-03T12:56:48;1.92;;;1.33;;
42036;SDS011;30340;52.004;5.908;2023-04-03T12:59:21;3.80;;;1.30;;
42036;SDS011;30340;52.004;5.908;2023-04-03T13:01:55;2.05;;;1.20;;
42036;SDS011;30340;52.004;5.908;2023-04-03T13:04:22;2.10;;;1.40;;
42036;SDS011;30340;52.004;5.908;2023-04-03T13:06:48;2.58;;;1.30;;
42036;SDS011;30340;52.004;5.908;2023-04-03T13:09:21;3.50;;;1.40;;
42036;SDS011;30340;52.004;5.908;2023-04-03T13:12:03;2.70;;;1.30;;
42036;SDS011;30340;52.004;5.908;2023-04-03T13:14:36;2.58;;;1.48;;
42036;SDS011;30340;52.004;5.908;2023-04-03T13:19:41;1.75;;;1.20;;
42036;SDS011;30340;52.004;5.908;2023-04-03T13:24:58;4.82;;;1.40;;
42036;SDS011;30340;52.004;5.908;2023-04-03T13:27:26;2.88;;;1.30;;
42036;SDS011;30340;52.004;5.908;2023-04-03T13:29:56;2.80;;;1.33;;
42036;SDS011;30340;52.004;5.908;2023-04-03T13:32:24;2.33;;;1.27;;
42036;SDS011;30340;52.004;5.908;2023-04-03T13:34:53;2.80;;;1.58;;
42036;SDS011;30340;52.004;5.908;2023-04-03T13:37:20;3.35;;;1.35;;
42036;SDS011;30340;52.004;5.908;2023-04-03T13:39:56;3.42;;;1.30;;
42036;SDS011;30340;52.004;5.908;2023-04-03T13:42:24;3.15;;;1.60;;
42036;SDS011;30340;52.004;5.908;2023-04-03T13:47:49;2.80;;;1.48;;
42036;SDS011;30340;52.004;5.908;2023-04-03T13:55:25;2.35;;;1.60;;
42036;SDS011;30340;52.004;5.908;2023-04-03T14:00:39;2.88;;;1.60;;
42036;SDS011;30340;52.004;5.908;2023-04-03T14:03:23;3.28;;;1.42;;
42036;SDS011;30340;52.004;5.908;2023-04-03T14:05:53;2.63;;;1.73;;
42036;SDS011;30340;52.004;5.908;2023-04-03T14:08:19;2.05;;;1.50;;
42036;SDS011;30340;52.004;5.908;2023-04-03T14:10:45;3.90;;;1.65;;
42036;SDS011;30340;52.004;5.908;2023-04-03T14:13:15;2.42;;;1.35;;
42036;SDS011;30340;52.004;5.908;2023-04-03T14:15:43;3.75;;;1.70;;
42036;SDS011;30340;52.004;5.908;2023-04-03T14:18:11;4.32;;;1.67;;
42036;SDS011;30340;52.004;5.908;2023-04-03T14:20:37;3.33;;;1.48;;
42036;SDS011;30340;52.004;5.908;2023-04-03T14:23:03;2.78;;;1.38;;
42036;SDS011;30340;52.004;5.908;2023-04-03T14:25:29;2.90;;;1.50;;
42036;SDS011;30340;52.004;5.908;2023-04-03T14:27:55;3.20;;;1.45;;
42036;SDS011;30340;52.004;5.908;2023-04-03T14:30:25;2.97;;;1.50;;
42036;SDS011;30340;52.004;5.908;2023-04-03T14:32:51;2.45;;;1.58;;
42036;SDS011;30340;52.004;5.908;2023-04-03T14:35:17;3.92;;;1.50;;
42036;SDS011;30340;52.004;5.908;2023-04-03T14:37:44;3.45;;;1.80;;
42036;SDS011;30340;52.004;5.908;2023-04-03T14:40:17;3.50;;;1.90;;
42036;SDS011;30340;52.004;5.908;2023-04-03T14:42:46;3.05;;;1.60;;
42036;SDS011;30340;52.004;5.908;2023-04-03T14:45:13;3.92;;;1.80;;
42036;SDS011;30340;52.004;5.908;2023-04-03T14:47:51;4.63;;;1.90;;
42036;SDS011;30340;52.004;5.908;2023-04-03T14:50:22;3.60;;;1.40;;
42036;SDS011;30340;52.004;5.908;2023-04-03T14:55:18;2.67;;;1.50;;
42036;SDS011;30340;52.004;5.908;2023-04-03T14:57:45;4.68;;;1.70;;
42036;SDS011;30340;52.004;5.908;2023-04-03T15:00:12;2.63;;;1.50;;
42036;SDS011;30340;52.004;5.908;2023-04-03T15:02:39;4.05;;;1.70;;
42036;SDS011;30340;52.004;5.908;2023-04-03T15:05:06;3.05;;;1.67;;
42036;SDS011;30340;52.004;5.908;2023-04-03T15:07:35;3.30;;;1.73;;
42036;SDS011;30340;52.004;5.908;2023-04-03T15:10:14;3.15;;;1.60;;
42036;SDS011;30340;52.004;5.908;2023-04-03T15:12:40;3.25;;;1.58;;
42036;SDS011;30340;52.004;5.908;2023-04-03T15:15:06;2.60;;;1.50;;
42036;SDS011;30340;52.004;5.908;2023-04-03T15:17:32;3.13;;;1.50;;
42036;SDS011;30340;52.004;5.908;2023-04-03T15:19:59;3.70;;;1.92;;
42036;SDS011;30340;52.004;5.908;2023-04-03T15:22:25;3.35;;;1.63;;
42036;SDS011;30340;52.004;5.908;2023-04-03T15:24:51;4.30;;;1.65;;
42036;SDS011;30340;52.004;5.908;2023-04-03T15:27:17;3.75;;;1.83;;
42036;SDS011;30340;52.004;5.908;2023-04-03T15:29:43;3.63;;;1.70;;
42036;SDS011;30340;52.004;5.908;2023-04-03T15:32:09;4.20;;;1.83;;
42036;SDS011;30340;52.004;5.908;2023-04-03T15:34:35;2.85;;;1.73;;
42036;SDS011;30340;52.004;5.908;2023-04-03T15:37:02;3.47;;;2.10;;
42036;SDS011;30340;52.004;5.908;2023-04-03T15:39:27;3.17;;;1.83;;
42036;SDS011;30340;52.004;5.908;2023-04-03T15:41:53;3.15;;;1.52;;
42036;SDS011;30340;52.004;5.908;2023-04-03T15:44:21;3.95;;;1.70;;
42036;SDS011;30340;52.004;5.908;2023-04-03T15:46:47;4.15;;;2.00;;
42036;SDS011;30340;52.004;5.908;2023-04-03T15:49:16;3.88;;;1.80;;
42036;SDS011;30340;52.004;5.908;2023-04-03T15:51:42;4.03;;;1.80;;
42036;SDS011;30340;52.004;5.908;2023-04-03T15:54:08;3.92;;;1.98;;
42036;SDS011;30340;52.004;5.908;2023-04-03T15:56:33;2.67;;;1.60;;
42036;SDS011;30340;52.004;5.908;2023-04-03T15:58:59;4.57;;;1.85;;
42036;SDS011;30340;52.004;5.908;2023-04-03T16:01:24;3.30;;;1.60;;
42036;SDS011;30340;52.004;5.908;2023-04-03T16:03:50;4.32;;;1.85;;
42036;SDS011;30340;52.004;5.908;2023-04-03T16:06:16;3.63;;;1.80;;
42036;SDS011;30340;52.004;5.908;2023-04-03T16:08:43;3.25;;;1.70;;
42036;SDS011;30340;52.004;5.908;2023-04-03T16:11:09;4.20;;;1.83;;
42036;SDS011;30340;52.004;5.908;2023-04-03T16:13:35;4.20;;;1.90;;
42036;SDS011;30340;52.004;5.908;2023-04-03T16:16:01;4.60;;;2.03;;
42036;SDS011;30340;52.004;5.908;2023-04-03T16:18:27;4.30;;;1.70;;
42036;SDS011;30340;52.004;5.908;2023-04-03T16:20:53;3.97;;;2.35;;
42036;SDS011;30340;52.004;5.908;2023-04-03T16:23:19;2.65;;;1.30;;
42036;SDS011;30340;52.004;5.908;2023-04-03T16:25:45;3.08;;;1.70;;
42036;SDS011;30340;52.004;5.908;2023-04-03T16:28:15;4.20;;;1.63;;
42036;SDS011;30340;52.004;5.908;2023-04-03T16:30:42;6.00;;;1.77;;
42036;SDS011;30340;52.004;5.908;2023-04-03T16:33:10;3.88;;;2.45;;
42036;SDS011;30340;52.004;5.908;2023-04-03T16:35:37;4.05;;;2.05;;
42036;SDS011;30340;52.004;5.908;2023-04-03T16:38:02;4.47;;;1.90;;
42036;SDS011;30340;52.004;5.908;2023-04-03T16:40:28;4.22;;;1.80;;
42036;SDS011;30340;52.004;5.908;2023-04-03T16:42:54;4.55;;;2.15;;
42036;SDS011;30340;52.004;5.908;2023-04-03T16:45:20;3.65;;;2.08;;
42036;SDS011;30340;52.004;5.908;2023-04-03T16:47:45;4.13;;;2.28;;
42036;SDS011;30340;52.004;5.908;2023-04-03T16:50:13;3.60;;;2.17;;
42036;SDS011;30340;52.004;5.908;2023-04-03T16:52:39;3.97;;;2.00;;